sensor_id;sensor_type;location;lat;lon;timestamp;pressure;altitude;pressure_sealevel;temperature;humidity
8653;BME280;4364;52.426;9.424;2023-10-13T00:02:02;100709.97;;;14.58;100.00
8653;BME280;4364;52.426;9.424;2023-10-13T00:04:32;100714.88;;;14.61;100.00
8653;BME280;4364;52.426;9.424;2023-10-13T00:07:02;100713.47;;;14.63;100.00
8653;BME280;4364;52.426;9.424;2023-10-13T00:09:31;100716.41;;;14.67;100.00
8653;BME280;4364;52.426;9.424;2023-10-13T00:12:05;100713.47;;;14.63;100.00
8653;BME280;4364;52.426;9.424;2023-10-13T00:14:35;100706.88;;;14.64;100.00
8653;BME280;4364;52.426;9.424;2023-10-13T00:17:05;100707.31;;;14.72;100.00
8653;BME280;4364;52.426;9.424;2023-10-13T00:19:36;100706.47;;;14.71;100.00
8653;BME280;4364;52.426;9.424;2023-10-13T00:22:19;100706.47;;;14.71;100.00
8653;BME280;4364;52.426;9.424;2023-10-13T00:24:46;100697.66;;;14.74;100.00
8653;BME280;4364;52.426;9.424;2023-10-13T00:27:20;100696.56;;;14.75;100.00
8653;BME280;4364;52.426;9.424;2023-10-13T00:30:04;100689.75;;;14.73;100.00
8653;BME280;4364;52.426;9.424;2023-10-13T00:32:44;100695.41;;;14.76;100.00
8653;BME280;4364;52.426;9.424;2023-10-13T00:35:18;100691.28;;;14.79;100.00
8653;BME280;4364;52.426;9.424;2023-10-13T00:38:04;100682.25;;;14.78;100.00
8653;BME280;4364;52.426;9.424;2023-10-13T00:40:39;100683.38;;;14.77;100.00
8653;BME280;4364;52.426;9.424;2023-10-13T00:43:07;100682.75;;;14.80;100.00
8653;BME280;4364;52.426;9.424;2023-10-13T00:45:49;100681.91;;;14.80;100.00
8653;BME280;4364;52.426;9.424;2023-10-13T00:48:29;100676.97;;;14.82;100.00
8653;BME280;4364;52.426;9.424;2023-10-13T00:51:04;100674.44;;;14.86;100.00
8653;BME280;4364;52.426;9.424;2023-10-13T00:53:35;100677.66;;;14.88;100.00
8653;BME280;4364;52.426;9.424;2023-10-13T00:56:07;100669.94;;;14.90;100.00
8653;BME280;4364;52.426;9.424;2023-10-13T00:58:34;100669.94;;;14.90;100.00
8653;BME280;4364;52.426;9.424;2023-10-13T01:01:03;100671.59;;;14.91;100.00
8653;BME280;4364;52.426;9.424;2023-10-13T01:03:47;100667.75;;;14.92;100.00
8653;BME280;4364;52.426;9.424;2023-10-13T01:06:22;100672.56;;;14.95;100.00
8653;BME280;4364;52.426;9.424;2023-10-13T01:09:03;100676.16;;;14.95;100.00
8653;BME280;4364;52.426;9.424;2023-10-13T01:11:44;100672.81;;;14.98;100.00
8653;BME280;4364;52.426;9.424;2023-10-13T01:14:12;100669.31;;;15.07;100.00
8653;BME280;4364;52.426;9.424;2023-10-13T01:16:39;100656.44;;;15.07;100.00
8653;BME280;4364;52.426;9.424;2023-10-13T01:19:06;100661.09;;;15.07;100.00
8653;BME280;4364;52.426;9.424;2023-10-13T01:21:33;100660.19;;;15.11;100.00
8653;BME280;4364;52.426;9.424;2023-10-13T01:24:00;100657.44;;;15.11;100.00
8653;BME280;4364;52.426;9.424;2023-10-13T01:26:27;100651.16;;;15.11;100.00
8653;BME280;4364;52.426;9.424;2023-10-13T01:28:57;100648.00;;;15.17;100.00
8653;BME280;4364;52.426;9.424;2023-10-13T01:31:24;100645.88;;;15.14;100.00
8653;BME280;4364;52.426;9.424;2023-10-13T01:33:53;100648.50;;;15.19;100.00
8653;BME280;4364;52.426;9.424;2023-10-13T01:36:21;100646.88;;;15.18;100.00
8653;BME280;4364;52.426;9.424;2023-10-13T01:38:49;100643.00;;;15.19;100.00
8653;BME280;4364;52.426;9.424;2023-10-13T01:41:22;100636.72;;;15.19;100.00
8653;BME280;4364;52.426;9.424;2023-10-13T01:43:49;100633.38;;;15.22;100.00
8653;BME280;4364;52.426;9.424;2023-10-13T01:46:16;100621.81;;;15.25;100.00
8653;BME280;4364;52.426;9.424;2023-10-13T01:48:46;100625.47;;;15.21;100.00
8653;BME280;4364;52.426;9.424;2023-10-13T01:51:13;100622.44;;;15.22;100.00
8653;BME280;4364;52.426;9.424;2023-10-13T01:53:40;100627.28;;;15.25;100.00
8653;BME280;4364;52.426;9.424;2023-10-13T01:56:08;100630.13;;;15.20;100.00
8653;BME280;4364;52.426;9.424;2023-10-13T01:58:38;100625.47;;;15.21;100.00
8653;BME280;4364;52.426;9.424;2023-10-13T02:01:09;100628.50;;;15.19;100.00
8653;BME280;4364;52.426;9.424;2023-10-13T02:03:37;100622.13;;;15.24;100.00
8653;BME280;4364;52.426;9.424;2023-10-13T02:06:12;100618.06;;;15.21;100.00
8653;BME280;4364;52.426;9.424;2023-10-13T02:08:44;100613.06;;;15.23;100.00
8653;BME280;4364;52.426;9.424;2023-10-13T02:11:13;100614.88;;;15.28;100.00
8653;BME280;4364;52.426;9.424;2023-10-13T02:13:45;100606.66;;;15.28;100.00
8653;BME280;4364;52.426;9.424;2023-10-13T02:16:15;100603.31;;;15.31;100.00
8653;BME280;4364;52.426;9.424;2023-10-13T02:18:47;100609.78;;;15.35;100.00
8653;BME280;4364;52.426;9.424;2023-10-13T02:21:19;100610.41;;;15.32;100.00
8653;BME280;4364;52.426;9.424;2023-10-13T02:23:45;100606.84;;;15.31;100.00
8653;BME280;4364;52.426;9.424;2023-10-13T02:26:26;100595.41;;;15.29;100.00
8653;BME280;4364;52.426;9.424;2023-10-13T02:28:59;100602.28;;;15.27;100.00
8653;BME280;4364;52.426;9.424;2023-10-13T02:31:28;100592.03;;;15.32;100.00
8653;BME280;4364;52.426;9.424;2023-10-13T02:33:55;100592.34;;;15.31;100.00
8653;BME280;4364;52.426;9.424;2023-10-13T02:36:22;100593.47;;;15.30;100.00
8653;BME280;4364;52.426;9.424;2023-10-13T02:38:49;100582.81;;;15.28;100.00
8653;BME280;4364;52.426;9.424;2023-10-13T02:41:18;100584.13;;;15.31;100.00
8653;BME280;4364;52.426;9.424;2023-10-13T02:43:53;100588.28;;;15.28;100.00
8653;BME280;4364;52.426;9.424;2023-10-13T02:46:22;100584.44;;;15.29;100.00
8653;BME280;4364;52.426;9.424;2023-10-13T02:48:50;100580.59;;;15.30;100.00
8653;BME280;4364;52.426;9.424;2023-10-13T02:51:20;100582.00;;;15.28;100.00
8653;BME280;4364;52.426;9.424;2023-10-13T02:53:52;100576.84;;;15.26;100.00
8653;BME280;4364;52.426;9.424;2023-10-13T02:56:19;100573.78;;;15.28;100.00
8653;BME280;4364;52.426;9.424;2023-10-13T02:58:50;100581.38;;;15.31;100.00
8653;BME280;4364;52.426;9.424;2023-10-13T03:01:23;100571.38;;;15.26;100.00
8653;BME280;4364;52.426;9.424;2023-10-13T03:03:56;100571.38;;;15.26;100.00
8653;BME280;4364;52.426;9.424;2023-10-13T03:06:26;100571.53;;;15.30;100.00
8653;BME280;4364;52.426;9.424;2023-10-13T03:09:04;100566.59;;;15.32;100.00
8653;BME280;4364;52.426;9.424;2023-10-13T03:11:41;100552.38;;;15.30;100.00
8653;BME280;4364;52.426;9.424;2023-10-13T03:14:18;100549.63;;;15.30;100.00
8653;BME280;4364;52.426;9.424;2023-10-13T03:17:00;100554.00;;;15.31;100.00
8653;BME280;4364;52.426;9.424;2023-10-13T03:19:33;100552.38;;;15.30;100.00
8653;BME280;4364;52.426;9.424;2023-10-13T03:22:04;100548.34;;;15.27;100.00
8653;BME280;4364;52.426;9.424;2023-10-13T03:24:44;100537.56;;;15.31;100.00
8653;BME280;4364;52.426;9.424;2023-10-13T03:27:17;100539.50;;;15.30;100.00
8653;BME280;4364;52.426;9.424;2023-10-13T03:29:49;100528.25;;;15.32;100.00
8653;BME280;4364;52.426;9.424;2023-10-13T03:32:23;100529.22;;;15.36;100.00
8653;BME280;4364;52.426;9.424;2023-10-13T03:34:53;100527.78;;;15.38;100.00
8653;BME280;4364;52.426;9.424;2023-10-13T03:37:26;100533.59;;;15.37;100.00
8653;BME280;4364;52.426;9.424;2023-10-13T03:40:10;100525.69;;;15.35;100.00
8653;BME280;4364;52.426;9.424;2023-10-13T03:45:26;100521.16;;;15.40;100.00
8653;BME280;4364;52.426;9.424;2023-10-13T03:47:53;100514.75;;;15.44;100.00
8653;BME280;4364;52.426;9.424;2023-10-13T03:50:20;100517.81;;;15.43;100.00
8653;BME280;4364;52.426;9.424;2023-10-13T03:52:56;100508.66;;;15.47;100.00
8653;BME280;4364;52.426;9.424;2023-10-13T03:55:25;100514.44;;;15.46;100.00
8653;BME280;4364;52.426;9.424;2023-10-13T03:57:56;100516.03;;;15.47;100.00
8653;BME280;4364;52.426;9.424;2023-10-13T04:00:26;100513.66;;;15.45;100.00
8653;BME280;4364;52.426;9.424;2023-10-13T04:02:54;100508.16;;;15.45;100.00
8653;BME280;4364;52.426;9.424;2023-10-13T04:05:32;100505.91;;;15.47;100.00
8653;BME280;4364;52.426;9.424;2023-10-13T04:08:28;100499.94;;;15.45;100.00
8653;BME280;4364;52.426;9.424;2023-10-13T04:10:55;100511.41;;;15.47;100.00
8653;BME280;4364;52.426;9.424;2023-10-13T04:13:23;100499.94;;;15.45;100.00
8653;BME280;4364;52.426;9.424;2023-10-13T04:16:08;100494.97;;;15.47;100.00
8653;BME280;4364;52.426;9.424;2023-10-13T04:18:55;100495.94;;;15.51;100.00
8653;BME280;4364;52.426;9.424;2023-10-13T04:21:22;100481.59;;;15.54;100.00
8653;BME280;4364;52.426;9.424;2023-10-13T04:24:10;100474.19;;;15.55;100.00
8653;BME280;4364;52.426;9.424;2023-10-13T04:26:55;100474.84;;;15.52;100.00
8653;BME280;4364;52.426;9.424;2023-10-13T04:29:41;100471.25;;;15.51;100.00
8653;BME280;4364;52.426;9.424;2023-10-13T04:32:26;100464.66;;;15.52;100.00
8653;BME280;4364;52.426;9.424;2023-10-13T04:34:57;100463.22;;;15.55;100.00
8653;BME280;4364;52.426;9.424;2023-10-13T04:37:39;100465.47;;;15.53;100.00
8653;BME280;4364;52.426;9.424;2023-10-13T04:40:40;100451.78;;;15.53;100.00
8653;BME280;4364;52.426;9.424;2023-10-13T04:43:22;100453.88;;;15.56;100.00
8653;BME280;4364;52.426;9.424;2023-10-13T04:46:21;100454.19;;;15.54;100.00
8653;BME280;4364;52.426;9.424;2023-10-13T04:49:06;100448.09;;;15.57;100.00
8653;BME280;4364;52.426;9.424;2023-10-13T04:51:56;100440.34;;;15.60;100.00
8653;BME280;4364;52.426;9.424;2023-10-13T04:54:30;100441.81;;;15.57;100.00
8653;BME280;4364;52.426;9.424;2023-10-13T04:57:01;100433.91;;;15.55;100.00
8653;BME280;4364;52.426;9.424;2023-10-13T04:59:47;100432.75;;;15.56;100.00
8653;BME280;4364;52.426;9.424;2023-10-13T05:02:33;100423.56;;;15.52;100.00
8653;BME280;4364;52.426;9.424;2023-10-13T05:05:13;100428.25;;;15.52;100.00
8653;BME280;4364;52.426;9.424;2023-10-13T05:07:52;100422.78;;;15.52;100.00
8653;BME280;4364;52.426;9.424;2023-10-13T05:10:38;100424.69;;;15.51;100.00
8653;BME280;4364;52.426;9.424;2023-10-13T05:13:23;100419.38;;;15.55;100.00
8653;BME280;4364;52.426;9.424;2023-10-13T05:16:09;100422.63;;;15.57;100.00
8653;BME280;4364;52.426;9.424;2023-10-13T05:18:54;100411.34;;;15.59;100.00
8653;BME280;4364;52.426;9.424;2023-10-13T05:21:40;100408.91;;;15.57;100.00
8653;BME280;4364;52.426;9.424;2023-10-13T05:24:25;100408.91;;;15.57;100.00
8653;BME280;4364;52.426;9.424;2023-10-13T05:27:10;100403.94;;;15.59;100.00
8653;BME280;4364;52.426;9.424;2023-10-13T05:29:55;100393.44;;;15.61;100.00
8653;BME280;4364;52.426;9.424;2023-10-13T05:32:40;100398.13;;;15.61;100.00
8653;BME280;4364;52.426;9.424;2023-10-13T05:35:26;100396.19;;;15.61;100.00
8653;BME280;4364;52.426;9.424;2023-10-13T05:38:11;100384.75;;;15.59;100.00
8653;BME280;4364;52.426;9.424;2023-10-13T05:41:01;100377.81;;;15.62;100.00
8653;BME280;4364;52.426;9.424;2023-10-13T05:43:51;100375.06;;;15.62;100.00
8653;BME280;4364;52.426;9.424;2023-10-13T05:46:36;100382.16;;;15.63;100.00
8653;BME280;4364;52.426;9.424;2023-10-13T05:49:08;100377.16;;;15.65;100.00
8653;BME280;4364;52.426;9.424;2023-10-13T05:51:44;100386.69;;;15.67;100.00
8653;BME280;4364;52.426;9.424;2023-10-13T05:54:24;100382.66;;;15.65;100.00
8653;BME280;4364;52.426;9.424;2023-10-13T05:57:09;100381.38;;;15.71;100.00
8653;BME280;4364;52.426;9.424;2023-10-13T05:59:54;100385.88;;;15.67;100.00
8653;BME280;4364;52.426;9.424;2023-10-13T06:02:40;100376.84;;;15.66;100.00
8653;BME280;4364;52.426;9.424;2023-10-13T06:05:25;100382.19;;;15.71;100.00
8653;BME280;4364;52.426;9.424;2023-10-13T06:08:10;100381.75;;;15.78;100.00
8653;BME280;4364;52.426;9.424;2023-10-13T06:11:02;100373.19;;;15.80;100.00
8653;BME280;4364;52.426;9.424;2023-10-13T06:13:48;100363.22;;;15.92;100.00
8653;BME280;4364;52.426;9.424;2023-10-13T06:16:33;100360.47;;;15.84;100.00
8653;BME280;4364;52.426;9.424;2023-10-13T06:19:19;100363.22;;;15.84;100.00
8653;BME280;4364;52.426;9.424;2023-10-13T06:22:04;100346.94;;;15.79;100.00
8653;BME280;4364;52.426;9.424;2023-10-13T06:24:49;100343.69;;;15.77;100.00
8653;BME280;4364;52.426;9.424;2023-10-13T06:27:35;100345.63;;;15.76;100.00
8653;BME280;4364;52.426;9.424;2023-10-13T06:30:20;100353.66;;;15.72;100.00
8653;BME280;4364;52.426;9.424;2023-10-13T06:32:47;100352.84;;;15.72;100.00
8653;BME280;4364;52.426;9.424;2023-10-13T06:35:13;100358.00;;;15.73;100.00
8653;BME280;4364;52.426;9.424;2023-10-13T06:37:50;100355.16;;;15.79;100.00
8653;BME280;4364;52.426;9.424;2023-10-13T06:40:18;100364.19;;;15.88;100.00
8653;BME280;4364;52.426;9.424;2023-10-13T06:43:03;100364.31;;;15.74;100.00
8653;BME280;4364;52.426;9.424;2023-10-13T06:45:45;100358.00;;;15.73;100.00
8653;BME280;4364;52.426;9.424;2023-10-13T06:48:17;100350.13;;;15.72;100.00
8653;BME280;4364;52.426;9.424;2023-10-13T06:50:48;100337.88;;;15.78;100.00
8653;BME280;4364;52.426;9.424;2023-10-13T06:53:15;100334.81;;;15.80;100.00
8653;BME280;4364;52.426;9.424;2023-10-13T06:55:42;100332.56;;;15.82;100.00
8653;BME280;4364;52.426;9.424;2023-10-13T06:58:13;100328.22;;;15.81;100.00
8653;BME280;4364;52.426;9.424;2023-10-13T07:00:40;100325.81;;;15.79;100.00
8653;BME280;4364;52.426;9.424;2023-10-13T07:03:07;100325.09;;;15.73;100.00
8653;BME280;4364;52.426;9.424;2023-10-13T07:05:45;100322.75;;;15.81;100.00
8653;BME280;4364;52.426;9.424;2023-10-13T07:08:15;100317.72;;;15.74;100.00
8653;BME280;4364;52.426;9.424;2023-10-13T07:10:55;100309.66;;;15.78;100.00
8653;BME280;4364;52.426;9.424;2023-10-13T07:13:32;100306.63;;;15.79;100.00
8653;BME280;4364;52.426;9.424;2023-10-13T07:16:07;100293.53;;;15.76;100.00
8653;BME280;4364;52.426;9.424;2023-10-13T07:18:54;100294.47;;;15.71;100.00
8653;BME280;4364;52.426;9.424;2023-10-13T07:21:21;100277.72;;;15.73;100.00
8653;BME280;4364;52.426;9.424;2023-10-13T07:23:58;100291.59;;;15.77;100.00
8653;BME280;4364;52.426;9.424;2023-10-13T07:26:35;100276.94;;;15.81;100.00
8653;BME280;4364;52.426;9.424;2023-10-13T07:29:10;100272.91;;;15.79;100.00
8653;BME280;4364;52.426;9.424;2023-10-13T07:31:37;100263.72;;;15.83;100.00
8653;BME280;4364;52.426;9.424;2023-10-13T07:34:11;100263.69;;;15.92;100.00
8653;BME280;4364;52.426;9.424;2023-10-13T07:37:07;100243.72;;;15.91;100.00
8653;BME280;4364;52.426;9.424;2023-10-13T07:39:42;100236.94;;;15.98;100.00
8653;BME280;4364;52.426;9.424;2023-10-13T07:42:09;100239.66;;;16.06;100.00
8653;BME280;4364;52.426;9.424;2023-10-13T07:44:48;100237.06;;;16.10;100.00
8653;BME280;4364;52.426;9.424;2023-10-13T07:47:15;100240.31;;;16.03;100.00
8653;BME280;4364;52.426;9.424;2023-10-13T07:49:43;100238.72;;;16.02;100.00
8653;BME280;4364;52.426;9.424;2023-10-13T07:52:11;100227.88;;;16.15;100.00
8653;BME280;4364;52.426;9.424;2023-10-13T07:54:51;100239.00;;;16.09;100.00
8653;BME280;4364;52.426;9.424;2023-10-13T07:57:39;100228.84;;;16.10;100.00
8653;BME280;4364;52.426;9.424;2023-10-13T08:00:23;100230.75;;;16.18;100.00
8653;BME280;4364;52.426;9.424;2023-10-13T08:02:57;100245.00;;;16.03;100.00
8653;BME280;4364;52.426;9.424;2023-10-13T08:05:36;100259.31;;;16.08;100.00
8653;BME280;4364;52.426;9.424;2023-10-13T08:08:22;100250.13;;;16.13;100.00
8653;BME280;4364;52.426;9.424;2023-10-13T08:10:52;100232.06;;;16.12;100.00
8653;BME280;4364;52.426;9.424;2023-10-13T08:13:23;100241.41;;;16.20;100.00
8653;BME280;4364;52.426;9.424;2023-10-13T08:15:50;100235.75;;;16.25;100.00
8653;BME280;4364;52.426;9.424;2023-10-13T08:18:16;100243.16;;;16.33;100.00
8653;BME280;4364;52.426;9.424;2023-10-13T08:20:58;100235.22;;;16.40;100.00
8653;BME280;4364;52.426;9.424;2023-10-13T08:23:30;100234.53;;;16.52;100.00
8653;BME280;4364;52.426;9.424;2023-10-13T08:26:15;100238.91;;;16.53;100.00
8653;BME280;4364;52.426;9.424;2023-10-13T08:28:57;100234.88;;;16.51;100.00
8653;BME280;4364;52.426;9.424;2023-10-13T08:31:45;100241.75;;;16.65;100.00
8653;BME280;4364;52.426;9.424;2023-10-13T08:34:31;100242.94;;;16.56;100.00
8653;BME280;4364;52.426;9.424;2023-10-13T08:37:10;100249.50;;;16.63;100.00
8653;BME280;4364;52.426;9.424;2023-10-13T08:39:51;100254.81;;;16.68;100.00
8653;BME280;4364;52.426;9.424;2023-10-13T08:42:51;100241.75;;;16.74;100.00
8653;BME280;4364;52.426;9.424;2023-10-13T08:45:31;100235.41;;;16.74;100.00
8653;BME280;4364;52.426;9.424;2023-10-13T08:48:02;100241.69;;;16.83;100.00
8653;BME280;4364;52.426;9.424;2023-10-13T08:50:40;100235.72;;;16.81;100.00
8653;BME280;4364;52.426;9.424;2023-10-13T08:53:15;100237.16;;;16.87;100.00
8653;BME280;4364;52.426;9.424;2023-10-13T08:56:03;100233.09;;;16.93;100.00
8653;BME280;4364;52.426;9.424;2023-10-13T08:59:00;100237.09;;;17.04;100.00
8653;BME280;4364;52.426;9.424;2023-10-13T09:01:34;100226.38;;;17.12;100.00
8653;BME280;4364;52.426;9.424;2023-10-13T09:04:17;100224.53;;;17.25;100.00
8653;BME280;4364;52.426;9.424;2023-10-13T09:12:14;100218.50;;;17.52;100.00
8653;BME280;4364;52.426;9.424;2023-10-13T09:14:42;100220.25;;;17.57;100.00
8653;BME280;4364;52.426;9.424;2023-10-13T09:17:12;100213.00;;;17.52;100.00
8653;BME280;4364;52.426;9.424;2023-10-13T09:22:22;100206.28;;;17.62;100.00
8653;BME280;4364;52.426;9.424;2023-10-13T09:25:03;100191.41;;;17.63;100.00
8653;BME280;4364;52.426;9.424;2023-10-13T09:27:33;100189.66;;;17.80;100.00
8653;BME280;4364;52.426;9.424;2023-10-13T09:30:00;100178.94;;;17.87;100.00
8653;BME280;4364;52.426;9.424;2023-10-13T09:32:44;100171.63;;;17.91;100.00
8653;BME280;4364;52.426;9.424;2023-10-13T09:35:19;100165.19;;;17.99;100.00
8653;BME280;4364;52.426;9.424;2023-10-13T09:37:50;100157.88;;;18.03;100.00
8653;BME280;4364;52.426;9.424;2023-10-13T09:40:17;100148.63;;;18.08;100.00
8653;BME280;4364;52.426;9.424;2023-10-13T09:43:00;100142.06;;;18.12;100.00
8653;BME280;4364;52.426;9.424;2023-10-13T09:45:32;100138.66;;;18.15;100.00
8653;BME280;4364;52.426;9.424;2023-10-13T09:48:03;100142.91;;;18.25;100.00
8653;BME280;4364;52.426;9.424;2023-10-13T09:50:37;100132.94;;;18.45;100.00
8653;BME280;4364;52.426;9.424;2023-10-13T09:53:07;100124.22;;;18.56;100.00
8653;BME280;4364;52.426;9.424;2023-10-13T09:55:38;100123.53;;;18.71;100.00
8653;BME280;4364;52.426;9.424;2023-10-13T09:58:07;100111.50;;;18.88;100.00
8653;BME280;4364;52.426;9.424;2023-10-13T10:00:50;100115.50;;;18.91;100.00
8653;BME280;4364;52.426;9.424;2023-10-13T10:03:47;100100.88;;;19.02;100.00
8653;BME280;4364;52.426;9.424;2023-10-13T10:06:36;100105.19;;;19.28;100.00
8653;BME280;4364;52.426;9.424;2023-10-13T10:09:12;100097.59;;;19.53;100.00
8653;BME280;4364;52.426;9.424;2023-10-13T10:12:00;100092.72;;;19.62;100.00
8653;BME280;4364;52.426;9.424;2023-10-13T10:14:40;100084.31;;;19.71;100.00
8653;BME280;4364;52.426;9.424;2023-10-13T10:17:08;100082.28;;;19.84;100.00
8653;BME280;4364;52.426;9.424;2023-10-13T10:19:53;100075.22;;;19.71;100.00
8653;BME280;4364;52.426;9.424;2023-10-13T10:22:26;100076.81;;;19.72;100.00
8653;BME280;4364;52.426;9.424;2023-10-13T10:24:57;100073.72;;;19.73;100.00
8653;BME280;4364;52.426;9.424;2023-10-13T10:27:27;100067.63;;;19.68;100.00
8653;BME280;4364;52.426;9.424;2023-10-13T10:29:56;100066.06;;;19.67;100.00
8653;BME280;4364;52.426;9.424;2023-10-13T10:32:38;100073.91;;;19.80;100.00
8653;BME280;4364;52.426;9.424;2023-10-13T10:35:09;100058.75;;;19.74;100.00
8653;BME280;4364;52.426;9.424;2023-10-13T10:37:47;100062.53;;;19.82;100.00
8653;BME280;4364;52.426;9.424;2023-10-13T10:40:14;100055.41;;;19.81;100.00
8653;BME280;4364;52.426;9.424;2023-10-13T10:43:13;100047.59;;;19.99;100.00
8653;BME280;4364;52.426;9.424;2023-10-13T10:45:59;100042.63;;;20.05;100.00
8653;BME280;4364;52.426;9.424;2023-10-13T10:48:31;100027.91;;;20.01;100.00
8653;BME280;4364;52.426;9.424;2023-10-13T10:51:00;100032.19;;;20.14;100.00
8653;BME280;4364;52.426;9.424;2023-10-13T10:53:40;100028.69;;;20.17;100.00
8653;BME280;4364;52.426;9.424;2023-10-13T10:56:12;100026.38;;;20.19;100.00
8653;BME280;4364;52.426;9.424;2023-10-13T10:58:56;100019.88;;;20.27;100.00
8653;BME280;4364;52.426;9.424;2023-10-13T11:01:25;100025.03;;;20.29;100.00
8653;BME280;4364;52.426;9.424;2023-10-13T11:04:04;100020.13;;;20.38;100.00
8653;BME280;4364;52.426;9.424;2023-10-13T11:06:35;100036.59;;;20.34;100.00
8653;BME280;4364;52.426;9.424;2023-10-13T11:09:09;100020.28;;;20.45;100.00
8653;BME280;4364;52.426;9.424;2023-10-13T11:11:46;100016.94;;;20.55;94.61
8653;BME280;4364;52.426;9.424;2023-10-13T11:14:23;100024.69;;;20.66;94.08
8653;BME280;4364;52.426;9.424;2023-10-13T11:16:50;100010.59;;;20.71;91.39
8653;BME280;4364;52.426;9.424;2023-10-13T11:19:18;100007.75;;;20.67;91.99
8653;BME280;4364;52.426;9.424;2023-10-13T11:21:53;100009.94;;;20.78;91.15
8653;BME280;4364;52.426;9.424;2023-10-13T11:24:20;99991.34;;;20.94;89.34
8653;BME280;4364;52.426;9.424;2023-10-13T11:26:49;100006.47;;;21.00;88.37
8653;BME280;4364;52.426;9.424;2023-10-13T11:29:19;100008.22;;;21.08;85.76
8653;BME280;4364;52.426;9.424;2023-10-13T11:31:56;99983.69;;;21.07;86.56
8653;BME280;4364;52.426;9.424;2023-10-13T11:34:26;99980.56;;;21.08;85.53
8653;BME280;4364;52.426;9.424;2023-10-13T11:37:06;99988.94;;;21.12;84.50
8653;BME280;4364;52.426;9.424;2023-10-13T11:39:51;99983.81;;;21.14;82.97
8653;BME280;4364;52.426;9.424;2023-10-13T11:42:18;99970.19;;;21.25;83.06
8653;BME280;4364;52.426;9.424;2023-10-13T11:44:44;99954.84;;;21.27;83.21
8653;BME280;4364;52.426;9.424;2023-10-13T11:47:11;99962.91;;;21.36;83.94
8653;BME280;4364;52.426;9.424;2023-10-13T11:50:03;99971.75;;;21.45;82.79
8653;BME280;4364;52.426;9.424;2023-10-13T11:52:32;99969.25;;;21.60;81.97
8653;BME280;4364;52.426;9.424;2023-10-13T11:54:58;99966.63;;;21.67;80.78
8653;BME280;4364;52.426;9.424;2023-10-13T11:57:25;99963.13;;;21.70;80.95
8653;BME280;4364;52.426;9.424;2023-10-13T11:59:52;99956.78;;;21.70;80.02
8653;BME280;4364;52.426;9.424;2023-10-13T12:02:20;99947.78;;;21.76;78.64
8653;BME280;4364;52.426;9.424;2023-10-13T12:04:53;99941.94;;;21.81;79.02
8653;BME280;4364;52.426;9.424;2023-10-13T12:07:24;99935.88;;;21.72;79.02
8653;BME280;4364;52.426;9.424;2023-10-13T12:09:54;99923.25;;;21.75;77.69
8653;BME280;4364;52.426;9.424;2023-10-13T12:12:24;99935.97;;;21.79;77.40
8653;BME280;4364;52.426;9.424;2023-10-13T12:14:52;99928.91;;;21.82;78.63
8653;BME280;4364;52.426;9.424;2023-10-13T12:17:19;99920.13;;;21.76;77.13
8653;BME280;4364;52.426;9.424;2023-10-13T12:19:52;99913.84;;;21.79;75.99
8653;BME280;4364;52.426;9.424;2023-10-13T12:22:18;99909.66;;;21.89;75.15
8653;BME280;4364;52.426;9.424;2023-10-13T12:24:56;99898.16;;;21.87;75.40
8653;BME280;4364;52.426;9.424;2023-10-13T12:27:23;99901.84;;;21.98;73.94
8653;BME280;4364;52.426;9.424;2023-10-13T12:29:53;99893.94;;;21.97;74.47
8653;BME280;4364;52.426;9.424;2023-10-13T12:32:22;99890.78;;;21.98;74.77
8653;BME280;4364;52.426;9.424;2023-10-13T12:34:51;99889.25;;;22.01;74.31
8653;BME280;4364;52.426;9.424;2023-10-13T12:37:28;99868.38;;;22.07;73.35
8653;BME280;4364;52.426;9.424;2023-10-13T12:40:18;99860.91;;;22.11;74.44
8653;BME280;4364;52.426;9.424;2023-10-13T12:43:05;99862.41;;;22.05;74.04
8653;BME280;4364;52.426;9.424;2023-10-13T12:45:51;99868.81;;;22.09;73.06
8653;BME280;4364;52.426;9.424;2023-10-13T12:48:37;99847.94;;;22.15;71.55
8653;BME280;4364;52.426;9.424;2023-10-13T12:51:33;99845.66;;;22.25;70.51
8653;BME280;4364;52.426;9.424;2023-10-13T12:54:01;99853.50;;;22.19;72.10
8653;BME280;4364;52.426;9.424;2023-10-13T12:56:42;99842.44;;;22.19;70.18
8653;BME280;4364;52.426;9.424;2023-10-13T12:59:10;99844.38;;;22.18;71.35
8653;BME280;4364;52.426;9.424;2023-10-13T13:01:40;99838.22;;;22.29;70.88
8653;BME280;4364;52.426;9.424;2023-10-13T13:04:11;99839.84;;;22.33;71.18
8653;BME280;4364;52.426;9.424;2023-10-13T13:06:49;99843.81;;;22.32;70.67
8653;BME280;4364;52.426;9.424;2023-10-13T13:09:16;99837.91;;;22.34;71.82
8653;BME280;4364;52.426;9.424;2023-10-13T13:11:53;99849.31;;;22.29;71.31
8653;BME280;4364;52.426;9.424;2023-10-13T13:14:24;99836.25;;;22.29;72.07
8653;BME280;4364;52.426;9.424;2023-10-13T13:16:56;99843.63;;;22.21;72.23
8653;BME280;4364;52.426;9.424;2023-10-13T13:19:33;99838.06;;;22.18;73.62
8653;BME280;4364;52.426;9.424;2023-10-13T13:22:06;99819.75;;;22.10;73.85
8653;BME280;4364;52.426;9.424;2023-10-13T13:24:43;99818.25;;;22.16;72.23
8653;BME280;4364;52.426;9.424;2023-10-13T13:27:14;99813.56;;;22.20;72.69
8653;BME280;4364;52.426;9.424;2023-10-13T13:29:41;99805.31;;;22.24;70.59
8653;BME280;4364;52.426;9.424;2023-10-13T13:32:08;99806.97;;;22.28;70.68
8653;BME280;4364;52.426;9.424;2023-10-13T13:34:51;99794.22;;;22.57;69.41
8653;BME280;4364;52.426;9.424;2023-10-13T13:37:33;99790.47;;;22.80;66.26
8653;BME280;4364;52.426;9.424;2023-10-13T13:40:03;99793.91;;;23.07;62.52
8653;BME280;4364;52.426;9.424;2023-10-13T13:42:45;99785.41;;;23.34;62.64
8653;BME280;4364;52.426;9.424;2023-10-13T13:45:15;99809.53;;;23.34;62.86
8653;BME280;4364;52.426;9.424;2023-10-13T13:47:49;99793.38;;;23.43;63.33
8653;BME280;4364;52.426;9.424;2023-10-13T13:50:24;99778.25;;;23.33;63.56
8653;BME280;4364;52.426;9.424;2023-10-13T13:52:55;99776.63;;;23.28;63.78
8653;BME280;4364;52.426;9.424;2023-10-13T13:55:23;99785.66;;;23.18;64.70
8653;BME280;4364;52.426;9.424;2023-10-13T13:57:50;99769.78;;;23.11;64.96
8653;BME280;4364;52.426;9.424;2023-10-13T14:00:18;99756.22;;;23.03;66.72